Huvudsida
METAR-TAF:

METAR-TAF

Flygplatser :

Helsingfors-Vanda flygplats

Helsingfors, Finland

latitud: 60-19N, longitud: 024-58E, höjd: 51 m

Aktuellt väderrapport

Denna rapport gjordes för 18 minuter sedan, klockan 15:20 UTC
Vind 1 kt varierande vindriktning
Temperatur 8°C
Fuktighet 87%
Tryck 1021 hPa
Sikt 10 km eller mer
Inga moln under 1 500 m eller inga cumulonimbus

METAR: EFHK 201520Z VRB01KT CAVOK 08/06 Q1021 NOSIG

Tid: 18:38 (15:38 UTC)

Väderprognos

Denna rapport gjordes för 1 timme och 14 minuter sedan, klockan 14:24 UTC
Prognos gäller från 20 kl. 15 UTC till 21 kl. 15 UTC
Vind 2 kt varierande vindriktning
Sikt 10 km eller mer
Inga moln under 1 500 m eller inga cumulonimbus
Sannolikhet 40% :
Temporärt
från 21 kl. 00 UTC till 21 kl. 08 UTC
Sikt: 4000 m
fuktdis
Blir
från 21 kl. 10 UTC till 21 kl. 12 UTC
Vind 12 kt från sydväst

TAF: EFHK 201424Z 2015/2115 VRB02KT CAVOK PROB40 TEMPO 2100/2108 4000 BR BECMG 2110/2112 22012KT

Aktuella väderrapporter och prognoser från 4000 flygplatser (METAR- och TAF-rapporter).

De tillgängliga stationerna syns som gula och röda prickar på kartan.

För musen över prickarna för att se namnen på stationerna.

Klicka sedan för att få väderrapporter och prognoser.

För att ändra kartan: Klicka på de gröna knapparna med ett svart kors på för att zooma in; den gröna knappen med ett streck på för att zooma ut; eller på de gröna pilarna för angränsande kartor.


METAR-TAF: